sensor_id;sensor_type;location;lat;lon;timestamp;pressure;altitude;pressure_sealevel;temperature;humidity
1207;BME280;593;53.184;8.216;2023-03-04T00:00:38;101960.56;;;8.18;100.00
1207;BME280;593;53.184;8.216;2023-03-04T00:03:09;101961.84;;;8.15;100.00
1207;BME280;593;53.184;8.216;2023-03-04T00:05:35;101956.69;;;8.14;100.00
1207;BME280;593;53.184;8.216;2023-03-04T00:08:01;101969.97;;;8.15;100.00
1207;BME280;593;53.184;8.216;2023-03-04T00:10:26;101967.84;;;8.17;100.00
1207;BME280;593;53.184;8.216;2023-03-04T00:12:51;101960.56;;;8.18;100.00
1207;BME280;593;53.184;8.216;2023-03-04T00:15:17;101959.84;;;8.11;100.00
1207;BME280;593;53.184;8.216;2023-03-04T00:17:42;101955.84;;;8.13;100.00
1207;BME280;593;53.184;8.216;2023-03-04T00:20:10;101959.97;;;8.16;100.00
1207;BME280;593;53.184;8.216;2023-03-04T00:22:36;101953.97;;;8.14;100.00
1207;BME280;593;53.184;8.216;2023-03-04T00:25:01;101955.59;;;8.15;100.00
1207;BME280;593;53.184;8.216;2023-03-04T00:27:26;101952.31;;;8.13;100.00
1207;BME280;593;53.184;8.216;2023-03-04T00:29:52;101949.84;;;8.11;100.00
1207;BME280;593;53.184;8.216;2023-03-04T00:32:17;101937.94;;;8.12;100.00
1207;BME280;593;53.184;8.216;2023-03-04T00:34:43;101935.22;;;8.12;100.00
1207;BME280;593;53.184;8.216;2023-03-04T00:37:08;101943.59;;;8.11;100.00
1207;BME280;593;53.184;8.216;2023-03-04T00:39:33;101943.94;;;8.14;100.00
1207;BME280;593;53.184;8.216;2023-03-04T00:41:59;101936.28;;;8.11;100.00
1207;BME280;593;53.184;8.216;2023-03-04T00:44:24;101945.84;;;8.14;100.00
1207;BME280;593;53.184;8.216;2023-03-04T00:46:49;101938.75;;;8.13;100.00
1207;BME280;593;53.184;8.216;2023-03-04T00:49:14;101931.09;;;8.10;100.00
1207;BME280;593;53.184;8.216;2023-03-04T00:51:40;101934.38;;;8.12;100.00
1207;BME280;593;53.184;8.216;2023-03-04T00:54:05;101942.50;;;8.12;100.00
1207;BME280;593;53.184;8.216;2023-03-04T00:56:30;101929.78;;;8.12;100.00
1207;BME280;593;53.184;8.216;2023-03-04T00:58:56;101928.63;;;8.08;100.00
1207;BME280;593;53.184;8.216;2023-03-04T01:01:21;101925.22;;;8.13;100.00
1207;BME280;593;53.184;8.216;2023-03-04T01:03:47;101922.38;;;8.08;100.00
1207;BME280;593;53.184;8.216;2023-03-04T01:06:12;101928.16;;;8.11;100.00
1207;BME280;593;53.184;8.216;2023-03-04T01:08:38;101915.78;;;8.04;100.00
1207;BME280;593;53.184;8.216;2023-03-04T01:11:03;101919.91;;;8.06;100.00
1207;BME280;593;53.184;8.216;2023-03-04T01:13:29;101919.41;;;8.09;100.00
1207;BME280;593;53.184;8.216;2023-03-04T01:15:54;101914.00;;;8.09;100.00
1207;BME280;593;53.184;8.216;2023-03-04T01:18:20;101920.84;;;8.12;100.00
1207;BME280;593;53.184;8.216;2023-03-04T01:20:46;101912.97;;;7.99;100.00
1207;BME280;593;53.184;8.216;2023-03-04T01:23:11;101917.75;;;7.97;100.00
1207;BME280;593;53.184;8.216;2023-03-04T01:25:36;101910.13;;;7.94;100.00
1207;BME280;593;53.184;8.216;2023-03-04T01:28:02;101901.50;;;7.97;100.00
1207;BME280;593;53.184;8.216;2023-03-04T01:30:27;101891.38;;;7.92;100.00
1207;BME280;593;53.184;8.216;2023-03-04T01:32:52;101902.13;;;7.99;100.00
1207;BME280;593;53.184;8.216;2023-03-04T01:35:18;101895.41;;;8.01;100.00
1207;BME280;593;53.184;8.216;2023-03-04T01:37:43;101899.53;;;8.04;100.00
1207;BME280;593;53.184;8.216;2023-03-04T01:40:09;101882.09;;;8.00;100.00
1207;BME280;593;53.184;8.216;2023-03-04T01:42:35;101893.63;;;8.07;100.00
1207;BME280;593;53.184;8.216;2023-03-04T01:45:01;101889.28;;;8.06;100.00
1207;BME280;593;53.184;8.216;2023-03-04T01:47:28;101881.63;;;8.03;100.00
1207;BME280;593;53.184;8.216;2023-03-04T01:49:56;101877.38;;;8.07;100.00
1207;BME280;593;53.184;8.216;2023-03-04T01:52:22;101871.16;;;8.06;100.00
1207;BME280;593;53.184;8.216;2023-03-04T01:54:48;101871.16;;;8.06;100.00
1207;BME280;593;53.184;8.216;2023-03-04T01:57:20;101874.19;;;8.10;100.00
1207;BME280;593;53.184;8.216;2023-03-04T01:59:46;101869.94;;;8.02;100.00
1207;BME280;593;53.184;8.216;2023-03-04T02:02:13;101858.91;;;8.04;100.00
1207;BME280;593;53.184;8.216;2023-03-04T02:04:39;101861.94;;;8.07;100.00
1207;BME280;593;53.184;8.216;2023-03-04T02:07:05;101864.66;;;8.07;100.00
1207;BME280;593;53.184;8.216;2023-03-04T02:09:32;101869.59;;;8.10;100.00
1207;BME280;593;53.184;8.216;2023-03-04T02:11:58;101862.31;;;8.11;100.00
1207;BME280;593;53.184;8.216;2023-03-04T02:14:24;101860.66;;;8.10;100.00
1207;BME280;593;53.184;8.216;2023-03-04T02:16:50;101854.41;;;8.09;100.00
1207;BME280;593;53.184;8.216;2023-03-04T02:19:33;101854.41;;;8.09;100.00
1207;BME280;593;53.184;8.216;2023-03-04T02:22:01;101860.44;;;8.11;100.00
1207;BME280;593;53.184;8.216;2023-03-04T02:24:35;101845.47;;;8.09;100.00
1207;BME280;593;53.184;8.216;2023-03-04T02:27:03;101849.81;;;8.10;100.00
1207;BME280;593;53.184;8.216;2023-03-04T02:29:29;101842.75;;;8.09;100.00
1207;BME280;593;53.184;8.216;2023-03-04T02:31:54;101824.03;;;7.96;100.00
1207;BME280;593;53.184;8.216;2023-03-04T02:34:26;101840.63;;;8.11;100.00
1207;BME280;593;53.184;8.216;2023-03-04T02:36:53;101838.75;;;8.11;100.00
1207;BME280;593;53.184;8.216;2023-03-04T02:41:48;101830.50;;;8.06;100.00
1207;BME280;593;53.184;8.216;2023-03-04T02:44:25;101822.38;;;8.06;100.00
1207;BME280;593;53.184;8.216;2023-03-04T02:46:52;101832.97;;;8.08;100.00
1207;BME280;593;53.184;8.216;2023-03-04T02:49:18;101833.53;;;8.10;100.00
1207;BME280;593;53.184;8.216;2023-03-04T02:51:44;101826.50;;;8.09;100.00
1207;BME280;593;53.184;8.216;2023-03-04T02:54:18;101833.09;;;8.13;100.00
1207;BME280;593;53.184;8.216;2023-03-04T02:56:48;101824.38;;;8.11;100.00
1207;BME280;593;53.184;8.216;2023-03-04T02:59:14;101817.28;;;8.10;100.00
1207;BME280;593;53.184;8.216;2023-03-04T03:01:40;101827.66;;;8.13;100.00
1207;BME280;593;53.184;8.216;2023-03-04T03:04:05;101803.06;;;8.03;100.00
1207;BME280;593;53.184;8.216;2023-03-04T03:06:30;101818.59;;;8.07;100.00
1207;BME280;593;53.184;8.216;2023-03-04T03:08:56;101816.25;;;8.11;100.00
1207;BME280;593;53.184;8.216;2023-03-04T03:11:21;101809.16;;;8.10;100.00
1207;BME280;593;53.184;8.216;2023-03-04T03:13:46;101808.13;;;8.11;100.00
1207;BME280;593;53.184;8.216;2023-03-04T03:16:12;101810.00;;;8.10;100.00
1207;BME280;593;53.184;8.216;2023-03-04T03:18:37;101808.13;;;8.11;100.00
1207;BME280;593;53.184;8.216;2023-03-04T03:21:04;101801.50;;;8.07;100.00
1207;BME280;593;53.184;8.216;2023-03-04T03:23:29;101796.19;;;8.12;100.00
1207;BME280;593;53.184;8.216;2023-03-04T03:25:54;101796.09;;;8.07;100.00
1207;BME280;593;53.184;8.216;2023-03-04T03:28:20;101781.13;;;8.04;100.00
1207;BME280;593;53.184;8.216;2023-03-04T03:30:45;101787.50;;;8.10;100.00
1207;BME280;593;53.184;8.216;2023-03-04T03:33:10;101786.44;;;8.11;100.00
1207;BME280;593;53.184;8.216;2023-03-04T03:35:36;101790.19;;;8.10;100.00
1207;BME280;593;53.184;8.216;2023-03-04T03:38:01;101779.81;;;8.07;100.00
1207;BME280;593;53.184;8.216;2023-03-04T03:40:26;101792.06;;;8.09;100.00
1207;BME280;593;53.184;8.216;2023-03-04T03:42:52;101782.06;;;8.10;100.00
1207;BME280;593;53.184;8.216;2023-03-04T03:45:17;101769.25;;;8.05;100.00
1207;BME280;593;53.184;8.216;2023-03-04T03:47:42;101775.50;;;8.06;100.00
1207;BME280;593;53.184;8.216;2023-03-04T03:50:08;101786.44;;;8.11;100.00
1207;BME280;593;53.184;8.216;2023-03-04T03:52:34;101784.78;;;8.10;100.00
1207;BME280;593;53.184;8.216;2023-03-04T03:54:59;101771.94;;;8.05;100.00
1207;BME280;593;53.184;8.216;2023-03-04T03:57:26;101783.94;;;8.09;100.00
1207;BME280;593;53.184;8.216;2023-03-04T03:59:52;101766.78;;;8.04;100.00
1207;BME280;593;53.184;8.216;2023-03-04T04:02:17;101768.41;;;8.05;100.00
1207;BME280;593;53.184;8.216;2023-03-04T04:04:42;101780.44;;;8.09;100.00
1207;BME280;593;53.184;8.216;2023-03-04T04:07:08;101772.88;;;8.11;100.00
1207;BME280;593;53.184;8.216;2023-03-04T04:09:33;101780.19;;;8.10;100.00
1207;BME280;593;53.184;8.216;2023-03-04T04:11:58;101779.34;;;8.10;100.00
1207;BME280;593;53.184;8.216;2023-03-04T04:14:24;101767.13;;;8.07;100.00
1207;BME280;593;53.184;8.216;2023-03-04T04:16:49;101767.94;;;8.08;100.00
1207;BME280;593;53.184;8.216;2023-03-04T04:19:18;101767.69;;;8.09;100.00
1207;BME280;593;53.184;8.216;2023-03-04T04:21:44;101770.41;;;8.09;100.00
1207;BME280;593;53.184;8.216;2023-03-04T04:24:10;101762.28;;;8.09;100.00
1207;BME280;593;53.184;8.216;2023-03-04T04:26:35;101755.81;;;8.10;100.00
1207;BME280;593;53.184;8.216;2023-03-04T04:29:01;101752.75;;;8.07;100.00
1207;BME280;593;53.184;8.216;2023-03-04T04:31:26;101752.16;;;8.05;100.00
1207;BME280;593;53.184;8.216;2023-03-04T04:33:51;101754.03;;;8.04;100.00
1207;BME280;593;53.184;8.216;2023-03-04T04:36:17;101757.94;;;8.08;100.00
1207;BME280;593;53.184;8.216;2023-03-04T04:38:42;101747.56;;;8.05;100.00
1207;BME280;593;53.184;8.216;2023-03-04T04:41:18;101745.69;;;8.06;100.00
1207;BME280;593;53.184;8.216;2023-03-04T04:43:44;101750.28;;;8.05;100.00
1207;BME280;593;53.184;8.216;2023-03-04T04:46:09;101751.69;;;8.08;100.00
1207;BME280;593;53.184;8.216;2023-03-04T04:48:34;101752.75;;;8.07;100.00
1207;BME280;593;53.184;8.216;2023-03-04T04:51:00;101749.81;;;8.08;100.00
1207;BME280;593;53.184;8.216;2023-03-04T04:53:25;101753.81;;;8.06;100.00
1207;BME280;593;53.184;8.216;2023-03-04T04:55:50;101754.88;;;8.05;100.00
1207;BME280;593;53.184;8.216;2023-03-04T04:58:16;101751.34;;;8.04;100.00
1207;BME280;593;53.184;8.216;2023-03-04T05:00:41;101759.22;;;8.06;100.00
1207;BME280;593;53.184;8.216;2023-03-04T05:03:07;101766.28;;;8.07;100.00
1207;BME280;593;53.184;8.216;2023-03-04T05:05:32;101760.06;;;8.06;100.00
1207;BME280;593;53.184;8.216;2023-03-04T05:07:57;101753.13;;;7.99;100.00
1207;BME280;593;53.184;8.216;2023-03-04T05:10:23;101754.88;;;8.05;100.00
1207;BME280;593;53.184;8.216;2023-03-04T05:12:48;101760.53;;;8.03;100.00
1207;BME280;593;53.184;8.216;2023-03-04T05:15:14;101758.03;;;8.02;100.00
1207;BME280;593;53.184;8.216;2023-03-04T05:17:39;101769.50;;;8.04;100.00
1207;BME280;593;53.184;8.216;2023-03-04T05:20:05;101764.06;;;8.04;100.00
1207;BME280;593;53.184;8.216;2023-03-04T05:22:31;101771.13;;;8.05;100.00
1207;BME280;593;53.184;8.216;2023-03-04T05:24:57;101765.38;;;8.01;100.00
1207;BME280;593;53.184;8.216;2023-03-04T05:27:22;101763.72;;;8.00;100.00
1207;BME280;593;53.184;8.216;2023-03-04T05:29:47;101765.38;;;8.01;100.00
1207;BME280;593;53.184;8.216;2023-03-04T05:32:13;101765.72;;;8.05;100.00
1207;BME280;593;53.184;8.216;2023-03-04T05:34:38;101751.22;;;7.99;100.00
1207;BME280;593;53.184;8.216;2023-03-04T05:37:03;101758.03;;;8.02;100.00
1207;BME280;593;53.184;8.216;2023-03-04T05:39:29;101755.94;;;8.04;100.00
1207;BME280;593;53.184;8.216;2023-03-04T05:41:54;101751.22;;;7.99;100.00
1207;BME280;593;53.184;8.216;2023-03-04T05:44:19;101748.75;;;7.98;100.00
1207;BME280;593;53.184;8.216;2023-03-04T05:46:45;101752.63;;;8.02;100.00
1207;BME280;593;53.184;8.216;2023-03-04T05:49:10;101742.19;;;7.94;100.00
1207;BME280;593;53.184;8.216;2023-03-04T05:51:35;101759.13;;;8.01;100.00
1207;BME280;593;53.184;8.216;2023-03-04T05:54:01;101764.28;;;8.02;100.00
1207;BME280;593;53.184;8.216;2023-03-04T05:56:26;101750.75;;;8.02;100.00
1207;BME280;593;53.184;8.216;2023-03-04T05:58:58;101741.09;;;7.95;100.00
1207;BME280;593;53.184;8.216;2023-03-04T06:01:24;101751.59;;;8.03;100.00
1207;BME280;593;53.184;8.216;2023-03-04T06:03:49;101743.81;;;7.95;100.00
1207;BME280;593;53.184;8.216;2023-03-04T06:06:15;101744.91;;;7.94;100.00
1207;BME280;593;53.184;8.216;2023-03-04T06:08:41;101756.06;;;7.97;100.00
1207;BME280;593;53.184;8.216;2023-03-04T06:11:06;101753.34;;;7.97;100.00
1207;BME280;593;53.184;8.216;2023-03-04T06:13:34;101743.59;;;7.96;100.00
1207;BME280;593;53.184;8.216;2023-03-04T06:16:00;101746.88;;;7.98;100.00
1207;BME280;593;53.184;8.216;2023-03-04T06:18:26;101732.88;;;7.90;100.00
1207;BME280;593;53.184;8.216;2023-03-04T06:21:00;101742.50;;;7.97;100.00
1207;BME280;593;53.184;8.216;2023-03-04T06:23:26;101742.50;;;7.97;100.00
1207;BME280;593;53.184;8.216;2023-03-04T06:25:56;101742.75;;;7.96;100.00
1207;BME280;593;53.184;8.216;2023-03-04T06:28:22;101746.78;;;7.93;100.00
1207;BME280;593;53.184;8.216;2023-03-04T06:30:47;101752.78;;;7.95;100.00
1207;BME280;593;53.184;8.216;2023-03-04T06:33:13;101742.88;;;7.89;100.00
1207;BME280;593;53.184;8.216;2023-03-04T06:35:38;101750.53;;;7.92;100.00
1207;BME280;593;53.184;8.216;2023-03-04T06:38:03;101755.72;;;7.94;100.00
1207;BME280;593;53.184;8.216;2023-03-04T06:40:29;101759.97;;;7.90;100.00
1207;BME280;593;53.184;8.216;2023-03-04T06:42:54;101765.16;;;7.91;100.00
1207;BME280;593;53.184;8.216;2023-03-04T06:45:19;101766.19;;;7.90;100.00
1207;BME280;593;53.184;8.216;2023-03-04T06:47:45;101778.09;;;7.78;100.00
1207;BME280;593;53.184;8.216;2023-03-04T06:50:11;101770.09;;;7.83;100.00
1207;BME280;593;53.184;8.216;2023-03-04T06:52:37;101778.22;;;7.83;100.00
1207;BME280;593;53.184;8.216;2023-03-04T06:55:03;101767.63;;;7.81;100.00
1207;BME280;593;53.184;8.216;2023-03-04T06:57:29;101781.50;;;7.85;100.00
1207;BME280;593;53.184;8.216;2023-03-04T06:59:54;101776.56;;;7.82;100.00
1207;BME280;593;53.184;8.216;2023-03-04T07:02:20;101781.50;;;7.85;100.00
1207;BME280;593;53.184;8.216;2023-03-04T07:04:45;101776.22;;;7.78;100.00
1207;BME280;593;53.184;8.216;2023-03-04T07:07:11;101779.06;;;7.83;100.00
1207;BME280;593;53.184;8.216;2023-03-04T07:09:36;101763.63;;;7.84;100.00
1207;BME280;593;53.184;8.216;2023-03-04T07:12:02;101780.09;;;7.82;100.00
1207;BME280;593;53.184;8.216;2023-03-04T07:14:28;101781.50;;;7.85;100.00
1207;BME280;593;53.184;8.216;2023-03-04T07:16:53;101781.75;;;7.83;100.00
1207;BME280;593;53.184;8.216;2023-03-04T07:19:19;101781.50;;;7.85;100.00
1207;BME280;593;53.184;8.216;2023-03-04T07:21:44;101779.88;;;7.84;100.00
1207;BME280;593;53.184;8.216;2023-03-04T07:24:11;101782.81;;;7.82;100.00
1207;BME280;593;53.184;8.216;2023-03-04T07:26:36;101788.59;;;7.86;100.00
1207;BME280;593;53.184;8.216;2023-03-04T07:29:02;101792.13;;;7.86;100.00
1207;BME280;593;53.184;8.216;2023-03-04T07:31:30;101782.34;;;7.85;100.00
1207;BME280;593;53.184;8.216;2023-03-04T07:33:58;101784.81;;;7.87;100.00
1207;BME280;593;53.184;8.216;2023-03-04T07:36:24;101793.53;;;7.89;100.00
1207;BME280;593;53.184;8.216;2023-03-04T07:38:51;101796.81;;;7.91;100.00
1207;BME280;593;53.184;8.216;2023-03-04T07:41:19;101797.66;;;7.91;100.00
1207;BME280;593;53.184;8.216;2023-03-04T07:43:44;101795.75;;;7.92;100.00
1207;BME280;593;53.184;8.216;2023-03-04T07:46:10;101797.41;;;7.93;100.00
1207;BME280;593;53.184;8.216;2023-03-04T07:48:36;101801.78;;;7.94;100.00
1207;BME280;593;53.184;8.216;2023-03-04T07:51:10;101807.19;;;7.94;100.00
1207;BME280;593;53.184;8.216;2023-03-04T07:53:37;101808.00;;;7.94;100.00
1207;BME280;593;53.184;8.216;2023-03-04T07:56:04;101807.78;;;7.96;100.00
1207;BME280;593;53.184;8.216;2023-03-04T07:58:30;101764.69;;;7.71;100.00
1207;BME280;593;53.184;8.216;2023-03-04T08:00:56;101804.00;;;7.97;100.00
1207;BME280;593;53.184;8.216;2023-03-04T08:03:22;101802.47;;;7.89;100.00
1207;BME280;593;53.184;8.216;2023-03-04T08:05:47;101805.53;;;7.93;100.00
1207;BME280;593;53.184;8.216;2023-03-04T08:08:13;101787.63;;;7.92;100.00
1207;BME280;593;53.184;8.216;2023-03-04T08:10:38;101789.28;;;7.93;100.00
1207;BME280;593;53.184;8.216;2023-03-04T08:13:17;101801.53;;;7.95;100.00
1207;BME280;593;53.184;8.216;2023-03-04T08:15:54;101793.88;;;7.92;100.00
1207;BME280;593;53.184;8.216;2023-03-04T08:18:20;101790.94;;;7.94;100.00
1207;BME280;593;53.184;8.216;2023-03-04T08:20:45;101797.41;;;7.93;100.00
1207;BME280;593;53.184;8.216;2023-03-04T08:23:10;101798.81;;;7.95;100.00
1207;BME280;593;53.184;8.216;2023-03-04T08:25:41;101803.19;;;7.96;100.00
1207;BME280;593;53.184;8.216;2023-03-04T08:28:08;101812.13;;;7.97;100.00
1207;BME280;593;53.184;8.216;2023-03-04T08:30:35;101811.31;;;7.96;100.00
1207;BME280;593;53.184;8.216;2023-03-04T08:33:02;101809.41;;;7.97;100.00
1207;BME280;593;53.184;8.216;2023-03-04T08:35:27;101807.19;;;7.94;100.00
1207;BME280;593;53.184;8.216;2023-03-04T08:37:53;101811.06;;;7.98;100.00
1207;BME280;593;53.184;8.216;2023-03-04T08:40:18;101804.47;;;7.94;100.00
1207;BME280;593;53.184;8.216;2023-03-04T08:42:44;101813.91;;;7.91;100.00
1207;BME280;593;53.184;8.216;2023-03-04T08:45:09;101819.22;;;7.86;100.00
1207;BME280;593;53.184;8.216;2023-03-04T08:47:35;101823.56;;;7.87;100.00
1207;BME280;593;53.184;8.216;2023-03-04T08:50:00;101817.91;;;7.89;100.00
1207;BME280;593;53.184;8.216;2023-03-04T08:52:28;101810.47;;;7.84;100.00
1207;BME280;593;53.184;8.216;2023-03-04T08:54:53;101808.47;;;7.80;100.00
1207;BME280;593;53.184;8.216;2023-03-04T08:57:19;101813.88;;;7.80;100.00
1207;BME280;593;53.184;8.216;2023-03-04T08:59:44;101819.88;;;7.82;100.00
1207;BME280;593;53.184;8.216;2023-03-04T09:02:09;101806.94;;;7.60;100.00
1207;BME280;593;53.184;8.216;2023-03-04T09:04:35;101823.06;;;7.67;100.00
1207;BME280;593;53.184;8.216;2023-03-04T09:07:00;101827.56;;;7.61;100.00
1207;BME280;593;53.184;8.216;2023-03-04T09:09:26;101819.53;;;7.55;100.00
1207;BME280;593;53.184;8.216;2023-03-04T09:11:51;101827.44;;;7.56;100.00
1207;BME280;593;53.184;8.216;2023-03-04T09:14:17;101832.84;;;7.56;100.00
1207;BME280;593;53.184;8.216;2023-03-04T09:16:42;101818.69;;;7.54;100.00
1207;BME280;593;53.184;8.216;2023-03-04T09:19:07;101823.44;;;7.59;100.00
1207;BME280;593;53.184;8.216;2023-03-04T09:21:33;101822.16;;;7.61;100.00
1207;BME280;593;53.184;8.216;2023-03-04T09:23:58;101822.47;;;7.65;100.00
1207;BME280;593;53.184;8.216;2023-03-04T09:26:26;101829.69;;;7.71;100.00
1207;BME280;593;53.184;8.216;2023-03-04T09:28:53;101832.59;;;7.69;100.00
1207;BME280;593;53.184;8.216;2023-03-04T09:31:20;101833.22;;;7.71;100.00
1207;BME280;593;53.184;8.216;2023-03-04T09:33:45;101813.91;;;7.68;100.00
1207;BME280;593;53.184;8.216;2023-03-04T09:36:12;101831.44;;;7.77;100.00
1207;BME280;593;53.184;8.216;2023-03-04T09:38:39;101829.09;;;7.81;100.00
1207;BME280;593;53.184;8.216;2023-03-04T09:41:07;101825.56;;;7.80;100.00
1207;BME280;593;53.184;8.216;2023-03-04T09:43:34;101834.16;;;7.89;100.00
1207;BME280;593;53.184;8.216;2023-03-04T09:46:14;101834.97;;;7.89;100.00
1207;BME280;593;53.184;8.216;2023-03-04T09:48:47;101841.31;;;7.95;100.00
1207;BME280;593;53.184;8.216;2023-03-04T09:51:22;101835.91;;;7.95;100.00
1207;BME280;593;53.184;8.216;2023-03-04T09:57:11;101840.63;;;7.76;100.00
1207;BME280;593;53.184;8.216;2023-03-04T09:59:44;101840.16;;;7.79;100.00
1207;BME280;593;53.184;8.216;2023-03-04T10:02:19;101842.16;;;7.72;100.00
1207;BME280;593;53.184;8.216;2023-03-04T10:04:55;101849.94;;;7.80;100.00
1207;BME280;593;53.184;8.216;2023-03-04T10:07:26;101851.34;;;7.83;100.00
1207;BME280;593;53.184;8.216;2023-03-04T10:09:58;101845.94;;;7.83;100.00
1207;BME280;593;53.184;8.216;2023-03-04T10:12:28;101843.56;;;7.74;100.00
1207;BME280;593;53.184;8.216;2023-03-04T10:15:16;101852.03;;;7.90;100.00
1207;BME280;593;53.184;8.216;2023-03-04T10:17:46;101852.88;;;7.90;100.00
1207;BME280;593;53.184;8.216;2023-03-04T10:22:43;101851.69;;;7.98;100.00
1207;BME280;593;53.184;8.216;2023-03-04T10:27:57;101836.84;;;8.00;100.00
1207;BME280;593;53.184;8.216;2023-03-04T10:30:47;101831.69;;;7.99;100.00
1207;BME280;593;53.184;8.216;2023-03-04T10:33:19;101848.28;;;8.02;100.00
1207;BME280;593;53.184;8.216;2023-03-04T10:35:50;101840.16;;;8.02;100.00
1207;BME280;593;53.184;8.216;2023-03-04T10:38:19;101816.00;;;7.89;100.00
1207;BME280;593;53.184;8.216;2023-03-04T10:40:50;101835.69;;;8.08;100.00
1207;BME280;593;53.184;8.216;2023-03-04T10:43:17;101827.91;;;8.00;100.00
1207;BME280;593;53.184;8.216;2023-03-04T10:45:44;101844.53;;;8.03;100.00
1207;BME280;593;53.184;8.216;2023-03-04T10:48:21;101842.53;;;7.99;100.00
1207;BME280;593;53.184;8.216;2023-03-04T10:50:47;101852.88;;;8.02;100.00
1207;BME280;593;53.184;8.216;2023-03-04T10:53:36;101846.75;;;8.06;100.00
1207;BME280;593;53.184;8.216;2023-03-04T10:56:29;101858.50;;;8.12;100.00
1207;BME280;593;53.184;8.216;2023-03-04T10:58:53;101833.53;;;8.10;100.00
1207;BME280;593;53.184;8.216;2023-03-04T11:01:39;101844.28;;;8.16;100.00
1207;BME280;593;53.184;8.216;2023-03-04T11:04:16;101841.78;;;8.15;100.00
1207;BME280;593;53.184;8.216;2023-03-04T11:06:42;101835.06;;;8.17;100.00
1207;BME280;593;53.184;8.216;2023-03-04T11:09:20;101836.59;;;8.25;100.00
1207;BME280;593;53.184;8.216;2023-03-04T11:11:49;101815.38;;;8.22;100.00
1207;BME280;593;53.184;8.216;2023-03-04T11:14:27;101822.22;;;8.24;100.00
1207;BME280;593;53.184;8.216;2023-03-04T11:16:57;101820.72;;;8.28;100.00
1207;BME280;593;53.184;8.216;2023-03-04T11:19:34;101807.41;;;8.27;100.00
1207;BME280;593;53.184;8.216;2023-03-04T11:22:02;101786.88;;;8.19;100.00
1207;BME280;593;53.184;8.216;2023-03-04T11:24:28;101822.47;;;8.34;100.00
1207;BME280;593;53.184;8.216;2023-03-04T11:29:27;101825.28;;;8.39;100.00
1207;BME280;593;53.184;8.216;2023-03-04T11:31:59;101803.03;;;8.37;100.00
1207;BME280;593;53.184;8.216;2023-03-04T11:34:38;101806.31;;;8.39;100.00
1207;BME280;593;53.184;8.216;2023-03-04T11:40:10;101803.59;;;8.39;100.00
1207;BME280;593;53.184;8.216;2023-03-04T11:45:14;101788.25;;;8.45;100.00
1207;BME280;593;53.184;8.216;2023-03-04T11:48:03;101787.78;;;8.48;100.00
1207;BME280;593;53.184;8.216;2023-03-04T11:51:02;101786.13;;;8.47;100.00
1207;BME280;593;53.184;8.216;2023-03-04T11:54:15;101795.44;;;8.51;100.00
1207;BME280;593;53.184;8.216;2023-03-04T11:56:46;101784.94;;;8.55;100.00
1207;BME280;593;53.184;8.216;2023-03-04T11:59:46;101785.75;;;8.55;100.00
1207;BME280;593;53.184;8.216;2023-03-04T12:02:21;101778.19;;;8.57;100.00
1207;BME280;593;53.184;8.216;2023-03-04T12:05:03;101788.31;;;8.62;100.00
1207;BME280;593;53.184;8.216;2023-03-04T12:07:49;101782.88;;;8.62;100.00
1207;BME280;593;53.184;8.216;2023-03-04T12:21:18;101792.91;;;8.21;100.00
1207;BME280;593;53.184;8.216;2023-03-04T12:42:59;101759.09;;;8.12;100.00
1207;BME280;593;53.184;8.216;2023-03-04T12:45:46;101753.44;;;8.14;100.00
1207;BME280;593;53.184;8.216;2023-03-04T12:48:31;101754.34;;;8.19;100.00
1207;BME280;593;53.184;8.216;2023-03-04T12:58:53;101742.44;;;8.32;99.19
1207;BME280;593;53.184;8.216;2023-03-04T13:01:35;101755.78;;;8.33;98.89
1207;BME280;593;53.184;8.216;2023-03-04T13:04:26;101759.66;;;8.37;99.56
1207;BME280;593;53.184;8.216;2023-03-04T13:07:07;101758.59;;;8.38;99.09
1207;BME280;593;53.184;8.216;2023-03-04T13:09:51;101741.25;;;8.39;100.00
1207;BME280;593;53.184;8.216;2023-03-04T13:12:20;101751.03;;;8.41;100.00
1207;BME280;593;53.184;8.216;2023-03-04T13:23:00;101748.00;;;8.25;96.29
1207;BME280;593;53.184;8.216;2023-03-04T13:25:46;101740.81;;;8.31;97.85
1207;BME280;593;53.184;8.216;2023-03-04T13:28:19;101733.53;;;8.31;97.87
1207;BME280;593;53.184;8.216;2023-03-04T13:36:00;101747.97;;;8.37;95.40
1207;BME280;593;53.184;8.216;2023-03-04T13:43:41;101743.81;;;7.95;86.00
1207;BME280;593;53.184;8.216;2023-03-04T13:48:43;101747.38;;;7.84;88.43
1207;BME280;593;53.184;8.216;2023-03-04T13:51:17;101737.63;;;7.71;87.28
1207;BME280;593;53.184;8.216;2023-03-04T13:53:52;101746.22;;;7.68;86.98
1207;BME280;593;53.184;8.216;2023-03-04T13:56:33;101740.09;;;7.72;89.32
1207;BME280;593;53.184;8.216;2023-03-04T14:06:44;101742.41;;;8.04;90.75
1207;BME280;593;53.184;8.216;2023-03-04T14:09:18;101742.97;;;8.06;90.03
1207;BME280;593;53.184;8.216;2023-03-04T14:11:46;101751.69;;;8.08;89.50
1207;BME280;593;53.184;8.216;2023-03-04T14:14:15;101756.38;;;8.12;88.17
1207;BME280;593;53.184;8.216;2023-03-04T14:16:48;101753.34;;;8.09;88.95
1207;BME280;593;53.184;8.216;2023-03-04T14:19:44;101760.97;;;8.12;90.55
1207;BME280;593;53.184;8.216;2023-03-04T14:22:30;101738.03;;;8.03;92.11
1207;BME280;593;53.184;8.216;2023-03-04T14:27:37;101761.94;;;8.06;94.74
1207;BME280;593;53.184;8.216;2023-03-04T14:30:24;101758.50;;;8.10;97.28
1207;BME280;593;53.184;8.216;2023-03-04T14:32:52;101755.34;;;8.13;97.92
1207;BME280;593;53.184;8.216;2023-03-04T14:35:27;101742.63;;;8.14;98.90
1207;BME280;593;53.184;8.216;2023-03-04T14:38:29;101750.75;;;8.14;99.06
1207;BME280;593;53.184;8.216;2023-03-04T14:41:04;101742.94;;;8.17;99.96
1207;BME280;593;53.184;8.216;2023-03-04T14:43:36;101732.09;;;8.17;99.26
1207;BME280;593;53.184;8.216;2023-03-04T14:46:07;101734.34;;;8.20;100.00
1207;BME280;593;53.184;8.216;2023-03-04T14:48:36;101733.03;;;8.23;100.00
1207;BME280;593;53.184;8.216;2023-03-04T14:51:02;101721.03;;;8.19;99.65
1207;BME280;593;53.184;8.216;2023-03-04T14:53:29;101723.25;;;8.22;99.17
1207;BME280;593;53.184;8.216;2023-03-04T14:56:00;101728.19;;;8.25;100.00
1207;BME280;593;53.184;8.216;2023-03-04T14:58:37;101731.03;;;8.30;99.59